Time;durP1;ratioP1;P1;durP2;ratioP2;P2;SDS_P1;SDS_P2;PMS_P1;PMS_P2;Temp;Humidity;BMP_temperature;BMP_pressure;BME280_temperature;BME280_humidity;BME280_pressure;Samples;Min_cycle;Max_cycle;Signal;HPM_P1;HPM_P2
2023/06/01 00:01:01;;;;;;;7.07;3.67;;;11.20;99.90;;;;;;5004742;28;20035;-81
2023/06/01 00:03:29;;;;;;;7.85;3.85;;;11.30;99.90;;;;;;5006640;28;20133;-81
2023/06/01 00:05:56;;;;;;;6.70;2.78;;;11.20;99.90;;;;;;5005988;28;20046;-81
2023/06/01 00:08:22;;;;;;;8.63;4.88;;;11.10;99.90;;;;;;5007080;28;20124;-81
2023/06/01 00:10:48;;;;;;;9.30;4.82;;;11.00;99.90;;;;;;5021514;28;20092;-81
2023/06/01 00:13:14;;;;;;;9.35;4.95;;;11.00;99.90;;;;;;4998168;28;20069;-80
2023/06/01 00:15:40;;;;;;;7.88;3.65;;;11.00;99.90;;;;;;4989249;28;20483;-80
2023/06/01 00:18:08;;;;;;;7.68;4.47;;;11.00;99.90;;;;;;5008353;28;20022;-80
2023/06/01 00:20:34;;;;;;;9.90;5.30;;;11.00;99.90;;;;;;5006046;28;20038;-80
2023/06/01 00:23:00;;;;;;;11.70;4.50;;;10.90;99.90;;;;;;5002603;28;20913;-80
2023/06/01 00:25:26;;;;;;;8.73;3.47;;;10.90;99.90;;;;;;5004787;28;20509;-80
2023/06/01 00:27:52;;;;;;;4.72;3.30;;;10.90;99.90;;;;;;5004274;28;20025;-81
2023/06/01 00:30:18;;;;;;;8.43;4.68;;;10.90;99.90;;;;;;4989382;28;20042;-81
2023/06/01 00:32:43;;;;;;;5.35;3.30;;;10.80;99.90;;;;;;4988159;28;20026;-81
2023/06/01 00:35:09;;;;;;;5.00;2.78;;;10.80;99.90;;;;;;5003514;28;20077;-80
2023/06/01 00:37:35;;;;;;;4.80;2.50;;;10.90;99.90;;;;;;4989658;28;20157;-81
2023/06/01 00:40:00;;;;;;;6.53;3.70;;;10.90;99.90;;;;;;5002883;28;20033;-80
2023/06/01 00:42:26;;;;;;;4.97;2.63;;;10.90;99.90;;;;;;5005602;28;20487;-81
2023/06/01 00:44:53;;;;;;;8.00;4.53;;;10.90;99.90;;;;;;5005164;28;20410;-80
2023/06/01 00:47:19;;;;;;;7.95;4.47;;;10.80;99.90;;;;;;5007161;28;20033;-81
2023/06/01 00:49:46;;;;;;;4.97;2.92;;;10.80;99.90;;;;;;5005736;28;20022;-81
2023/06/01 00:52:13;;;;;;;5.47;2.22;;;10.90;99.90;;;;;;4990788;28;20038;-80
2023/06/01 00:54:39;;;;;;;4.13;2.38;;;10.90;99.90;;;;;;5018733;28;20112;-81
2023/06/01 00:57:06;;;;;;;4.95;2.80;;;10.90;99.90;;;;;;4989355;28;20030;-81
2023/06/01 00:59:34;;;;;;;7.80;4.05;;;11.00;99.90;;;;;;5006347;28;20029;-81
2023/06/01 01:02:03;;;;;;;8.15;4.00;;;11.00;99.90;;;;;;4998604;28;20105;-81
2023/06/01 01:04:29;;;;;;;7.07;4.13;;;11.00;99.90;;;;;;5005031;28;20033;-81
2023/06/01 01:07:20;;;;;;;6.07;3.22;;;11.00;99.90;;;;;;4990077;28;20034;-81
2023/06/01 01:09:54;;;;;;;6.15;3.03;;;11.00;99.90;;;;;;4989383;28;20048;-81
2023/06/01 01:12:35;;;;;;;4.78;2.75;;;11.10;99.90;;;;;;5004156;28;20026;-80
2023/06/01 01:15:23;;;;;;;9.68;4.63;;;11.10;99.90;;;;;;5020215;28;20061;-80
2023/06/01 01:17:53;;;;;;;9.13;4.18;;;11.00;99.90;;;;;;5004477;28;20033;-81
2023/06/01 01:20:26;;;;;;;8.38;3.17;;;10.90;99.90;;;;;;5003073;28;20026;-81
2023/06/01 01:23:34;;;;;;;4.93;3.47;;;11.00;99.90;;;;;;5006724;28;20041;-80
2023/06/01 01:26:12;;;;;;;5.57;2.60;;;11.10;99.90;;;;;;4986119;28;20042;-80
2023/06/01 01:28:47;;;;;;;6.03;3.35;;;11.00;99.90;;;;;;5010350;28;20022;-80
2023/06/01 01:31:16;;;;;;;5.75;3.00;;;11.00;99.90;;;;;;4992373;28;20042;-80
2023/06/01 01:33:45;;;;;;;6.88;2.88;;;11.10;99.90;;;;;;5010718;28;20482;-81
2023/06/01 01:36:12;;;;;;;6.80;3.00;;;11.20;99.90;;;;;;5009286;28;20434;-82
2023/06/01 01:38:37;;;;;;;4.68;2.53;;;11.20;99.90;;;;;;5015553;28;20025;-81
2023/06/01 01:41:04;;;;;;;4.18;2.42;;;11.20;99.90;;;;;;4994490;28;20178;-81
2023/06/01 01:43:30;;;;;;;5.88;3.97;;;11.20;99.90;;;;;;5005363;28;20065;-80
2023/06/01 01:46:06;;;;;;;8.85;4.90;;;11.10;99.90;;;;;;4998561;28;20394;-82
2023/06/01 01:48:40;;;;;;;9.15;3.67;;;11.10;99.90;;;;;;5005758;28;20033;-81
2023/06/01 01:51:25;;;;;;;5.68;3.05;;;11.10;99.90;;;;;;5021754;28;20386;-81
2023/06/01 01:53:52;;;;;;;7.70;4.30;;;11.20;99.90;;;;;;5009814;28;20022;-82
2023/06/01 01:56:19;;;;;;;7.68;3.75;;;11.20;99.90;;;;;;4994445;28;20022;-81
2023/06/01 01:58:47;;;;;;;6.00;3.42;;;11.10;99.90;;;;;;5010013;28;20057;-82
2023/06/01 02:01:16;;;;;;;4.95;2.58;;;11.10;99.90;;;;;;4991456;28;20080;-80
2023/06/01 02:03:42;;;;;;;8.15;3.13;;;11.10;99.90;;;;;;5024332;28;20429;-82
2023/06/01 02:06:08;;;;;;;4.20;2.50;;;11.10;99.90;;;;;;4994386;28;20136;-81
2023/06/01 02:08:34;;;;;;;5.18;2.85;;;11.20;99.90;;;;;;4993027;28;20113;-81
2023/06/01 02:11:00;;;;;;;4.05;1.80;;;11.10;99.90;;;;;;5009322;28;20037;-80
2023/06/01 02:13:26;;;;;;;5.85;2.35;;;11.30;99.90;;;;;;5006827;28;20096;-81
2023/06/01 02:15:51;;;;;;;6.47;3.70;;;11.20;99.90;;;;;;4991544;28;20022;-81
2023/06/01 02:18:18;;;;;;;7.40;3.88;;;11.10;99.90;;;;;;4989710;28;20034;-81
2023/06/01 02:20:45;;;;;;;9.85;3.72;;;11.10;99.90;;;;;;4999085;28;20034;-81
2023/06/01 02:23:11;;;;;;;6.43;4.03;;;11.10;99.90;;;;;;5008525;28;20034;-81
2023/06/01 02:25:37;;;;;;;6.53;3.92;;;11.10;99.90;;;;;;4993651;28;20368;-81
2023/06/01 02:28:03;;;;;;;8.32;3.13;;;11.10;99.90;;;;;;5008065;28;20033;-81
2023/06/01 02:30:28;;;;;;;5.75;3.75;;;11.10;99.90;;;;;;4990710;28;20033;-82
2023/06/01 02:32:54;;;;;;;7.72;4.32;;;11.00;99.90;;;;;;5007786;28;20076;-81
2023/06/01 02:35:20;;;;;;;6.82;4.00;;;11.00;99.90;;;;;;4993553;28;20057;-81
2023/06/01 02:37:47;;;;;;;8.73;3.03;;;11.00;99.90;;;;;;5005067;28;20029;-80
2023/06/01 02:40:12;;;;;;;6.32;2.50;;;11.10;99.90;;;;;;5009898;28;20406;-81
2023/06/01 02:42:39;;;;;;;4.82;2.70;;;11.10;99.90;;;;;;4993503;28;20445;-80
2023/06/01 02:45:07;;;;;;;5.38;2.80;;;11.10;99.90;;;;;;4999180;28;20034;-80
2023/06/01 02:47:32;;;;;;;4.35;2.17;;;11.10;99.90;;;;;;4987963;28;20030;-80
2023/06/01 02:49:58;;;;;;;3.80;2.30;;;11.20;99.90;;;;;;5009054;28;20041;-81
2023/06/01 02:52:24;;;;;;;6.28;2.42;;;11.20;99.90;;;;;;5005017;28;20037;-81
2023/06/01 02:54:50;;;;;;;6.43;3.17;;;11.20;99.90;;;;;;5007971;28;20037;-80
2023/06/01 02:57:36;;;;;;;10.38;4.35;;;11.10;99.90;;;;;;4994939;28;20378;-79
2023/06/01 03:00:05;;;;;;;7.15;3.70;;;11.00;99.90;;;;;;4992548;28;20029;-80
2023/06/01 03:02:31;;;;;;;7.65;3.38;;;11.10;99.90;;;;;;4992590;28;20033;-80
2023/06/01 03:04:57;;;;;;;5.25;2.80;;;11.10;99.90;;;;;;5015714;28;20040;-80
2023/06/01 03:07:23;;;;;;;7.82;3.65;;;11.10;99.90;;;;;;5006768;28;20026;-80
2023/06/01 03:09:51;;;;;;;5.50;2.67;;;11.10;99.90;;;;;;5004449;28;20066;-82
2023/06/01 03:12:17;;;;;;;8.52;3.55;;;11.10;99.90;;;;;;5007864;28;20037;-81
2023/06/01 03:14:43;;;;;;;8.82;3.65;;;11.10;99.90;;;;;;4991851;28;20462;-81
2023/06/01 03:17:09;;;;;;;8.65;5.05;;;11.00;99.90;;;;;;5009520;28;20478;-81
2023/06/01 03:19:35;;;;;;;6.50;4.05;;;10.90;99.90;;;;;;4992010;28;20057;-81
2023/06/01 03:22:08;;;;;;;5.50;3.55;;;10.90;99.90;;;;;;4994092;28;20092;-81
2023/06/01 03:24:34;;;;;;;9.90;3.95;;;11.00;99.90;;;;;;5006781;28;20065;-81
2023/06/01 03:27:02;;;;;;;5.53;3.15;;;11.00;99.90;;;;;;4987227;28;20034;-81
2023/06/01 03:29:31;;;;;;;7.20;3.75;;;11.10;99.90;;;;;;4991018;28;20379;-80
2023/06/01 03:31:56;;;;;;;10.07;4.88;;;11.00;99.90;;;;;;5004370;28;20030;-80
2023/06/01 03:34:23;;;;;;;8.65;5.18;;;11.00;99.90;;;;;;5008783;28;20441;-81
2023/06/01 03:36:49;;;;;;;7.82;4.60;;;11.00;99.90;;;;;;4999945;28;20026;-81
2023/06/01 03:39:16;;;;;;;10.93;5.00;;;10.90;99.90;;;;;;5009068;28;20109;-81
2023/06/01 03:41:43;;;;;;;7.18;4.78;;;10.90;99.90;;;;;;5006183;28;20026;-81
2023/06/01 03:44:12;;;;;;;8.25;4.15;;;10.80;99.90;;;;;;4992346;28;20038;-80
2023/06/01 03:46:39;;;;;;;7.82;4.22;;;10.90;99.90;;;;;;5007169;28;20489;-81
2023/06/01 03:49:05;;;;;;;12.52;5.82;;;10.90;99.90;;;;;;5009271;28;20025;-81
2023/06/01 03:51:31;;;;;;;8.48;5.35;;;10.80;99.90;;;;;;5001959;28;20034;-81
2023/06/01 03:53:58;;;;;;;9.75;5.40;;;10.80;99.90;;;;;;4988503;28;20113;-81
2023/06/01 03:56:24;;;;;;;9.18;4.90;;;10.80;99.90;;;;;;4989724;28;20110;-81
2023/06/01 03:58:52;;;;;;;11.60;5.13;;;10.90;99.90;;;;;;5005406;28;20026;-81
2023/06/01 04:01:19;;;;;;;7.25;3.72;;;10.90;99.90;;;;;;4989561;28;20104;-81
2023/06/01 04:03:48;;;;;;;4.82;3.20;;;10.90;99.90;;;;;;5003064;28;20060;-80
2023/06/01 04:06:17;;;;;;;5.35;3.17;;;11.00;99.90;;;;;;5003195;28;20045;-80
2023/06/01 04:08:55;;;;;;;7.05;2.90;;;11.10;99.90;;;;;;5002611;28;20451;-80
2023/06/01 04:11:24;;;;;;;7.82;4.35;;;11.10;99.90;;;;;;4996655;28;20308;-80
2023/06/01 04:13:52;;;;;;;9.48;5.22;;;11.10;99.90;;;;;;4990138;28;20052;-80
2023/06/01 04:16:18;;;;;;;6.97;4.45;;;11.00;99.90;;;;;;5004536;28;20084;-80
2023/06/01 04:18:44;;;;;;;6.93;3.45;;;11.00;99.90;;;;;;5019865;28;20033;-80
2023/06/01 04:21:16;;;;;;;8.77;3.20;;;11.00;99.90;;;;;;5002880;28;20025;-80
2023/06/01 04:23:42;;;;;;;6.25;3.40;;;11.00;99.90;;;;;;5002255;28;20038;-80
2023/06/01 04:26:09;;;;;;;5.63;2.03;;;11.10;99.90;;;;;;4990711;28;20092;-80
2023/06/01 04:28:36;;;;;;;4.38;2.47;;;11.20;99.90;;;;;;4987259;28;20018;-80
2023/06/01 04:31:02;;;;;;;7.88;3.15;;;11.10;99.90;;;;;;5001467;28;20030;-80
2023/06/01 04:33:28;;;;;;;6.78;3.00;;;11.20;99.90;;;;;;5001546;28;20072;-80
2023/06/01 04:35:54;;;;;;;10.43;4.20;;;11.10;99.90;;;;;;4986527;28;20030;-81
2023/06/01 04:38:21;;;;;;;6.75;3.53;;;11.10;99.90;;;;;;5003754;28;20019;-80
2023/06/01 04:40:48;;;;;;;7.60;4.30;;;11.10;99.90;;;;;;4990515;28;20091;-80
2023/06/01 04:43:18;;;;;;;8.32;3.58;;;11.10;99.90;;;;;;4989929;28;20160;-80
2023/06/01 04:45:46;;;;;;;7.80;3.47;;;11.20;99.90;;;;;;5002927;28;20502;-81
2023/06/01 04:48:12;;;;;;;11.00;4.50;;;11.20;99.90;;;;;;4987204;28;20068;-81
2023/06/01 04:51:03;;;;;;;7.40;4.60;;;11.10;99.90;;;;;;5004941;28;20038;-81
2023/06/01 04:53:29;;;;;;;6.57;3.00;;;11.00;99.90;;;;;;5006066;28;20057;-81
2023/06/01 04:55:56;;;;;;;4.65;2.53;;;11.20;99.90;;;;;;4987203;28;20022;-81
2023/06/01 04:58:22;;;;;;;6.22;3.00;;;11.30;99.90;;;;;;4990834;28;20026;-80
2023/06/01 05:00:47;;;;;;;6.97;2.42;;;11.30;99.90;;;;;;5004866;28;20029;-80
2023/06/01 05:03:13;;;;;;;9.27;4.57;;;11.30;99.90;;;;;;5001245;28;20565;-81
2023/06/01 05:05:39;;;;;;;9.73;4.55;;;11.10;99.90;;;;;;5007740;28;20478;-81
2023/06/01 05:08:05;;;;;;;8.52;3.88;;;11.10;99.90;;;;;;5002849;28;20048;-81
2023/06/01 05:10:30;;;;;;;5.50;3.30;;;11.20;99.90;;;;;;4992474;28;20026;-80
2023/06/01 05:12:56;;;;;;;6.95;2.47;;;11.40;99.90;;;;;;5009141;28;20041;-81
2023/06/01 05:15:22;;;;;;;6.30;3.15;;;11.40;99.90;;;;;;5010221;28;21858;-81
2023/06/01 05:17:48;;;;;;;5.43;2.13;;;11.50;99.90;;;;;;4994595;28;20033;-81
2023/06/01 05:20:15;;;;;;;5.13;1.98;;;11.60;99.90;;;;;;4991301;28;20489;-80
2023/06/01 05:22:45;;;;;;;3.78;1.90;;;11.70;99.90;;;;;;4993871;28;20395;-80
2023/06/01 05:25:11;;;;;;;3.72;2.33;;;11.70;99.90;;;;;;5002846;28;20038;-80
2023/06/01 05:27:37;;;;;;;8.48;3.10;;;11.70;99.90;;;;;;5023283;28;20064;-80
2023/06/01 05:30:04;;;;;;;5.97;2.45;;;11.60;99.90;;;;;;5008860;28;20272;-80
2023/06/01 05:32:30;;;;;;;7.07;2.58;;;11.70;99.90;;;;;;4992630;28;20025;-80
2023/06/01 05:35:02;;;;;;;6.25;2.85;;;11.70;99.90;;;;;;5015238;28;20076;-80
2023/06/01 05:37:28;;;;;;;10.05;3.90;;;11.60;99.90;;;;;;4993623;28;20022;-79
2023/06/01 05:39:53;;;;;;;6.22;3.15;;;11.50;99.90;;;;;;4993382;28;20457;-80
2023/06/01 05:42:19;;;;;;;11.98;4.60;;;11.50;99.90;;;;;;4999770;28;20083;-80
2023/06/01 05:44:45;;;;;;;13.15;5.30;;;11.50;99.90;;;;;;4989846;28;20072;-80
2023/06/01 05:47:11;;;;;;;8.52;4.05;;;11.30;99.90;;;;;;5004992;28;20402;-80
2023/06/01 05:49:37;;;;;;;12.60;5.07;;;11.40;99.90;;;;;;4989564;28;20054;-80
2023/06/01 05:52:05;;;;;;;9.40;3.88;;;11.20;99.90;;;;;;5004081;28;20034;-80
2023/06/01 05:54:31;;;;;;;9.80;3.60;;;11.40;99.90;;;;;;4988693;28;20022;-79
2023/06/01 05:56:57;;;;;;;10.18;3.22;;;11.60;99.90;;;;;;5008727;28;20419;-79
2023/06/01 05:59:23;;;;;;;10.07;3.72;;;11.50;99.90;;;;;;4993419;28;20060;-80
2023/06/01 06:01:48;;;;;;;7.18;3.05;;;11.70;99.90;;;;;;5004816;28;20031;-80
2023/06/01 06:04:15;;;;;;;6.22;2.10;;;11.90;99.90;;;;;;5009385;28;20034;-80
2023/06/01 06:06:40;;;;;;;4.85;2.22;;;12.10;99.90;;;;;;4989563;28;20038;-80
2023/06/01 06:09:06;;;;;;;8.70;4.00;;;12.10;99.90;;;;;;4990349;28;20030;-80
2023/06/01 06:11:32;;;;;;;6.57;3.25;;;12.10;99.90;;;;;;5007928;28;20109;-80
2023/06/01 06:13:57;;;;;;;5.53;2.97;;;12.30;99.90;;;;;;5000735;28;20411;-81
2023/06/01 06:16:23;;;;;;;6.57;2.85;;;12.30;99.90;;;;;;5003834;28;20060;-80
2023/06/01 06:18:50;;;;;;;4.60;2.20;;;12.50;99.90;;;;;;4991194;28;20095;-80
2023/06/01 06:21:15;;;;;;;6.25;2.70;;;12.50;99.90;;;;;;5008766;28;20109;-81
2023/06/01 06:23:42;;;;;;;7.30;3.10;;;12.50;99.90;;;;;;4991806;28;20120;-81
2023/06/01 06:26:08;;;;;;;7.43;3.55;;;12.70;99.90;;;;;;4992415;28;20121;-80
2023/06/01 06:28:34;;;;;;;4.35;2.15;;;12.70;99.90;;;;;;5006129;28;20102;-81
2023/06/01 06:30:59;;;;;;;4.90;2.95;;;12.80;99.90;;;;;;4991904;28;20033;-81
2023/06/01 06:33:25;;;;;;;5.45;2.95;;;12.70;99.90;;;;;;5003680;28;20053;-80
2023/06/01 06:35:51;;;;;;;3.75;2.03;;;12.80;99.90;;;;;;5005035;28;20041;-80
2023/06/01 06:38:16;;;;;;;6.03;2.50;;;13.30;99.90;;;;;;5008257;28;20379;-80
2023/06/01 06:40:42;;;;;;;7.78;4.10;;;13.40;99.90;;;;;;4991629;28;20040;-81
2023/06/01 06:43:08;;;;;;;10.85;3.88;;;13.00;99.90;;;;;;5005668;28;20040;-80
2023/06/01 06:45:34;;;;;;;9.52;3.45;;;13.10;99.90;;;;;;5015576;28;20046;-80
2023/06/01 06:48:00;;;;;;;6.70;3.95;;;13.30;99.90;;;;;;5005156;28;20077;-80
2023/06/01 06:50:27;;;;;;;8.75;4.00;;;13.30;99.90;;;;;;5004888;28;20030;-80
2023/06/01 06:52:53;;;;;;;10.88;4.10;;;13.20;99.90;;;;;;4990843;28;20022;-81
2023/06/01 06:55:18;;;;;;;11.80;4.78;;;12.80;99.90;;;;;;4990109;28;20393;-81
2023/06/01 06:57:44;;;;;;;5.93;2.47;;;12.80;99.90;;;;;;4990667;28;20109;-80
2023/06/01 07:00:14;;;;;;;6.47;2.50;;;13.20;99.90;;;;;;4989789;28;20084;-81
2023/06/01 07:02:45;;;;;;;8.85;3.47;;;13.80;99.90;;;;;;4990870;28;20030;-81
2023/06/01 07:05:10;;;;;;;5.22;3.13;;;13.60;99.90;;;;;;4968957;28;20063;-81
2023/06/01 07:07:37;;;;;;;10.57;4.10;;;13.40;99.90;;;;;;4996553;28;20037;-81
2023/06/01 07:10:04;;;;;;;5.75;3.40;;;13.00;99.90;;;;;;4987093;28;20281;-80
2023/06/01 07:12:30;;;;;;;8.50;2.90;;;13.00;99.90;;;;;;4990309;28;20023;-81
2023/06/01 07:14:55;;;;;;;6.13;2.72;;;13.60;99.90;;;;;;5022159;28;20486;-80
2023/06/01 07:17:21;;;;;;;6.97;2.90;;;14.60;99.90;;;;;;4988675;28;20113;-81
2023/06/01 07:19:47;;;;;;;6.00;2.45;;;14.80;99.90;;;;;;5005169;28;20033;-80
2023/06/01 07:22:13;;;;;;;5.32;2.20;;;15.30;99.90;;;;;;5004959;28;20026;-81
2023/06/01 07:24:39;;;;;;;6.80;3.10;;;15.60;99.90;;;;;;5001840;28;20180;-81
2023/06/01 07:27:05;;;;;;;7.78;2.72;;;14.70;99.90;;;;;;5008251;28;20533;-81
2023/06/01 07:29:32;;;;;;;5.97;2.20;;;14.80;99.90;;;;;;5007371;28;20021;-80
2023/06/01 07:31:57;;;;;;;5.28;2.90;;;14.90;99.90;;;;;;5007306;28;20495;-81
2023/06/01 07:34:24;;;;;;;6.10;2.70;;;14.80;99.90;;;;;;5006930;28;20048;-82
2023/06/01 07:36:50;;;;;;;5.57;2.92;;;15.00;99.90;;;;;;5003472;28;20080;-81
2023/06/01 07:39:16;;;;;;;4.75;2.10;;;15.20;99.90;;;;;;5008239;28;20034;-81
2023/06/01 07:41:44;;;;;;;7.63;3.20;;;15.10;99.90;;;;;;4985806;28;20463;-81
2023/06/01 07:44:10;;;;;;;9.13;3.42;;;13.90;99.90;;;;;;5003585;28;20035;-82
2023/06/01 07:46:36;;;;;;;6.97;3.33;;;14.30;99.90;;;;;;5003743;28;20073;-81
2023/06/01 07:49:03;;;;;;;7.63;3.70;;;14.70;99.90;;;;;;5004833;28;20026;-81
2023/06/01 07:51:29;;;;;;;8.25;2.97;;;14.30;99.90;;;;;;4997269;28;20430;-81
2023/06/01 07:53:57;;;;;;;6.10;2.42;;;14.80;99.90;;;;;;5001648;28;20079;-80
2023/06/01 07:56:26;;;;;;;6.55;2.63;;;14.70;99.90;;;;;;5005947;28;20101;-81
2023/06/01 07:58:53;;;;;;;7.93;3.55;;;14.50;99.90;;;;;;4985233;28;20034;-81
2023/06/01 08:01:19;;;;;;;8.88;3.92;;;14.00;99.90;;;;;;5012684;28;20116;-81
2023/06/01 08:03:45;;;;;;;6.10;3.20;;;14.10;99.90;;;;;;5002269;28;20120;-80
2023/06/01 08:06:11;;;;;;;6.53;1.98;;;14.40;99.90;;;;;;5007483;28;20034;-80
2023/06/01 08:08:37;;;;;;;5.68;2.53;;;14.80;99.90;;;;;;4991066;28;20105;-80
2023/06/01 08:11:02;;;;;;;7.32;3.22;;;15.00;99.90;;;;;;5004391;28;20189;-81
2023/06/01 08:13:28;;;;;;;4.45;3.08;;;15.30;99.90;;;;;;5000877;28;20042;-81
2023/06/01 08:15:54;;;;;;;6.53;2.88;;;15.50;99.90;;;;;;4989363;28;20121;-81
2023/06/01 08:18:21;;;;;;;7.30;2.97;;;15.50;99.90;;;;;;4989194;28;20034;-80
2023/06/01 08:20:46;;;;;;;6.70;3.13;;;14.70;99.90;;;;;;5006927;28;20321;-81
2023/06/01 08:23:13;;;;;;;5.75;3.15;;;14.70;99.90;;;;;;5006802;28;20105;-81
2023/06/01 08:25:40;;;;;;;5.47;3.03;;;14.60;99.90;;;;;;4989716;28;20050;-81
2023/06/01 08:28:06;;;;;;;5.00;2.28;;;14.90;99.90;;;;;;5000646;28;20049;-80
2023/06/01 08:30:31;;;;;;;6.50;3.20;;;15.20;99.90;;;;;;4993392;28;20061;-81
2023/06/01 08:32:57;;;;;;;7.18;1.83;;;15.20;99.90;;;;;;5004572;28;20022;-81
2023/06/01 08:35:23;;;;;;;8.60;3.08;;;15.90;99.90;;;;;;5005761;28;20037;-82
2023/06/01 08:37:49;;;;;;;8.80;2.65;;;15.50;99.90;;;;;;4988337;28;20120;-81
2023/06/01 08:40:15;;;;;;;5.95;3.13;;;15.50;99.90;;;;;;5005101;28;20065;-81
2023/06/01 08:42:57;;;;;;;5.43;2.30;;;15.40;99.90;;;;;;4990477;28;20022;-81
2023/06/01 08:45:24;;;;;;;3.50;1.65;;;15.80;99.90;;;;;;5018611;28;20065;-81
2023/06/01 08:47:53;;;;;;;5.45;2.63;;;16.20;99.90;;;;;;5001970;28;20040;-81
2023/06/01 08:50:20;;;;;;;9.30;2.50;;;15.70;99.90;;;;;;5006343;28;20056;-82
2023/06/01 08:52:47;;;;;;;6.00;2.20;;;15.90;99.90;;;;;;5005027;28;20039;-82
2023/06/01 08:55:14;;;;;;;5.53;2.55;;;16.50;99.90;;;;;;5004503;28;20481;-81
2023/06/01 08:57:41;;;;;;;4.45;1.13;;;16.70;99.90;;;;;;5018281;28;20032;-82
2023/06/01 09:00:13;;;;;;;5.70;2.25;;;17.30;99.90;;;;;;5002750;28;20117;-81
2023/06/01 09:02:39;;;;;;;6.03;2.10;;;16.80;99.90;;;;;;5002933;28;20040;-82
2023/06/01 09:05:05;;;;;;;5.50;2.47;;;16.60;99.90;;;;;;5006481;28;20041;-81
2023/06/01 09:07:31;;;;;;;8.25;3.60;;;16.50;99.90;;;;;;5001374;28;20065;-82
2023/06/01 09:09:57;;;;;;;7.72;3.17;;;15.90;99.90;;;;;;5002260;28;20057;-82
2023/06/01 09:12:29;;;;;;;6.47;2.42;;;16.10;99.90;;;;;;4985474;28;20044;-82
2023/06/01 09:15:07;;;;;;;6.57;3.60;;;16.80;99.90;;;;;;5005785;28;20172;-81
2023/06/01 09:17:33;;;;;;;5.47;3.03;;;16.40;99.90;;;;;;4987856;28;20120;-81
2023/06/01 09:19:58;;;;;;;4.53;1.95;;;16.50;99.90;;;;;;5003927;28;20034;-81
2023/06/01 09:22:24;;;;;;;7.20;3.10;;;17.10;99.90;;;;;;4985404;28;20376;-82
2023/06/01 09:24:59;;;;;;;4.72;2.47;;;16.40;99.90;;;;;;4988247;28;20064;-82
2023/06/01 09:27:26;;;;;;;5.20;2.00;;;16.50;99.90;;;;;;4981206;28;20067;-81
2023/06/01 09:29:56;;;;;;;6.90;3.22;;;17.40;99.90;;;;;;5017026;28;20030;-81
2023/06/01 09:32:22;;;;;;;5.95;2.58;;;16.90;99.90;;;;;;5004424;28;20026;-82
2023/06/01 09:34:48;;;;;;;3.25;1.50;;;17.70;99.90;;;;;;5004473;28;20033;-81
2023/06/01 09:37:14;;;;;;;1.65;0.70;;;18.60;99.90;;;;;;5005786;28;20080;-82
2023/06/01 09:39:40;;;;;;;5.43;2.38;;;19.00;99.90;;;;;;5005750;28;20046;-83
2023/06/01 09:42:06;;;;;;;8.40;3.80;;;17.80;99.90;;;;;;5003580;28;20026;-82
2023/06/01 09:44:34;;;;;;;4.50;2.03;;;16.80;99.90;;;;;;5001981;28;20026;-82
2023/06/01 09:47:03;;;;;;;5.70;2.90;;;17.40;99.90;;;;;;5016386;28;20022;-81
2023/06/01 09:49:31;;;;;;;5.43;2.50;;;17.10;99.90;;;;;;5008393;28;20378;-82
2023/06/01 09:52:06;;;;;;;4.60;2.08;;;17.40;99.90;;;;;;5019956;28;20065;-83
2023/06/01 09:54:40;;;;;;;4.05;2.13;;;18.10;99.90;;;;;;5004770;28;20077;-82
2023/06/01 09:57:06;;;;;;;5.05;2.22;;;18.60;99.90;;;;;;5009393;28;20124;-82
2023/06/01 09:59:46;;;;;;;5.50;2.70;;;18.00;99.90;;;;;;5009686;28;20026;-82
2023/06/01 10:02:33;;;;;;;5.00;3.35;;;17.10;99.90;;;;;;5007188;28;20066;-82
2023/06/01 10:05:00;;;;;;;5.57;2.65;;;16.80;99.90;;;;;;5002634;28;20042;-83
2023/06/01 10:07:27;;;;;;;7.95;4.22;;;17.30;99.90;;;;;;5010073;28;20145;-82
2023/06/01 10:10:05;;;;;;;5.47;3.42;;;16.80;99.90;;;;;;5006414;28;20078;-81
2023/06/01 10:12:31;;;;;;;7.38;3.53;;;16.60;99.90;;;;;;5002183;28;20152;-82
2023/06/01 10:14:57;;;;;;;6.38;4.20;;;17.00;99.90;;;;;;4993004;28;20089;-82
2023/06/01 10:17:23;;;;;;;5.05;3.30;;;16.80;99.90;;;;;;4989168;28;20057;-82
2023/06/01 10:19:49;;;;;;;8.73;3.58;;;17.30;99.90;;;;;;4993868;28;20029;-82
2023/06/01 10:22:16;;;;;;;6.57;2.60;;;17.10;99.90;;;;;;4993726;28;20029;-82
2023/06/01 10:24:43;;;;;;;4.50;2.10;;;17.60;99.90;;;;;;5006322;28;20494;-82
2023/06/01 10:27:19;;;;;;;3.47;1.92;;;18.00;99.90;;;;;;4992578;28;20506;-82
2023/06/01 10:29:45;;;;;;;3.42;2.10;;;18.70;99.90;;;;;;4991376;28;20167;-83
2023/06/01 10:32:36;;;;;;;7.30;4.38;;;18.60;99.90;;;;;;5003917;28;20431;-83
2023/06/01 10:35:02;;;;;;;6.93;3.92;;;17.90;99.90;;;;;;5005068;28;20194;-83
2023/06/01 10:37:28;;;;;;;7.45;3.50;;;17.40;99.90;;;;;;5003746;28;20026;-82
2023/06/01 10:40:18;;;;;;;4.25;3.10;;;17.70;99.90;;;;;;5007166;28;20025;-84
2023/06/01 10:42:45;;;;;;;6.38;3.63;;;18.10;99.90;;;;;;5004606;28;20030;-83
2023/06/01 10:45:35;;;;;;;6.78;3.10;;;18.20;99.90;;;;;;5007364;28;20049;-82
2023/06/01 10:48:03;;;;;;;6.63;3.10;;;18.20;99.90;;;;;;5005509;28;20061;-83
2023/06/01 10:50:29;;;;;;;7.82;3.60;;;18.20;99.90;;;;;;4989857;28;20030;-83
2023/06/01 10:52:56;;;;;;;7.20;3.75;;;18.20;99.90;;;;;;5007816;28;20034;-83
2023/06/01 10:55:24;;;;;;;5.88;3.08;;;18.50;99.90;;;;;;4990341;28;20025;-83
2023/06/01 10:57:50;;;;;;;7.35;3.35;;;18.30;99.90;;;;;;4988654;28;20482;-82
2023/06/01 11:00:26;;;;;;;4.55;2.22;;;18.30;99.90;;;;;;4988069;28;20052;-82
2023/06/01 11:03:04;;;;;;;6.22;2.63;;;18.90;99.90;;;;;;5006857;28;20181;-82
2023/06/01 11:05:38;;;;;;;8.88;3.15;;;18.80;99.90;;;;;;5007521;28;20403;-84
2023/06/01 11:08:23;;;;;;;6.28;3.33;;;18.70;99.90;;;;;;5005729;28;20156;-83
2023/06/01 11:10:54;;;;;;;7.68;3.03;;;18.50;99.90;;;;;;5003271;28;20080;-84
2023/06/01 11:13:29;;;;;;;8.13;2.53;;;19.10;99.90;;;;;;5000717;28;20050;-83
2023/06/01 11:16:04;;;;;;;5.22;1.60;;;18.80;99.90;;;;;;5004504;28;20044;-84
2023/06/01 11:18:58;;;;;;;3.42;2.08;;;19.30;99.90;;;;;;4988234;28;20029;-84
2023/06/01 11:21:30;;;;;;;5.22;1.98;;;19.60;99.90;;;;;;5004176;28;20018;-85
2023/06/01 11:23:58;;;;;;;6.95;3.10;;;19.70;99.90;;;;;;4991060;28;20034;-83
2023/06/01 11:26:45;;;;;;;4.57;2.65;;;18.90;99.90;;;;;;5004557;28;20048;-83
2023/06/01 11:29:21;;;;;;;6.18;2.92;;;19.40;99.90;;;;;;5017039;28;20378;-83
2023/06/01 11:31:48;;;;;;;4.82;2.40;;;19.10;99.90;;;;;;5019111;28;20045;-84
2023/06/01 11:34:17;;;;;;;5.72;3.22;;;19.20;99.90;;;;;;4990252;28;20026;-83
2023/06/01 11:36:47;;;;;;;6.65;2.50;;;19.10;99.90;;;;;;5014796;28;20036;-83
2023/06/01 11:39:21;;;;;;;9.63;3.92;;;19.50;99.90;;;;;;5008076;28;20077;-83
2023/06/01 11:41:52;;;;;;;7.28;2.50;;;19.00;99.90;;;;;;4991233;28;20033;-84
2023/06/01 11:44:18;;;;;;;4.90;2.40;;;19.30;99.90;;;;;;5003809;28;20022;-84
2023/06/01 11:46:55;;;;;;;7.85;2.28;;;19.60;99.90;;;;;;4990290;28;20038;-84
2023/06/01 11:49:21;;;;;;;3.15;1.63;;;19.70;99.90;;;;;;5022032;28;20034;-84
2023/06/01 11:51:48;;;;;;;3.90;1.77;;;20.00;99.90;;;;;;5006615;28;20029;-84
2023/06/01 11:54:13;;;;;;;4.00;2.08;;;20.30;99.90;;;;;;5006331;28;20057;-84
2023/06/01 11:56:40;;;;;;;7.70;3.03;;;20.20;99.90;;;;;;4986178;28;20026;-85
2023/06/01 11:59:09;;;;;;;11.45;3.83;;;19.80;99.90;;;;;;4987740;28;20033;-84
2023/06/01 12:01:41;;;;;;;7.63;3.47;;;19.60;99.90;;;;;;4993125;28;20034;-84
2023/06/01 12:04:18;;;;;;;6.35;2.05;;;19.30;99.90;;;;;;5005228;28;20331;-82
2023/06/01 12:06:44;;;;;;;5.68;2.60;;;20.10;99.90;;;;;;4986836;28;20045;-84
2023/06/01 12:09:11;;;;;;;5.20;2.75;;;20.10;99.90;;;;;;4990461;28;20025;-83
2023/06/01 12:11:38;;;;;;;4.35;2.28;;;20.00;99.90;;;;;;4990211;28;20026;-85
2023/06/01 12:14:05;;;;;;;6.05;2.92;;;20.20;99.90;;;;;;4988563;28;20049;-83
2023/06/01 12:17:02;;;;;;;4.78;2.20;;;19.80;99.90;;;;;;5002213;28;20622;-84
2023/06/01 12:19:28;;;;;;;4.22;1.48;;;19.70;99.90;;;;;;5004783;28;20019;-84
2023/06/01 12:21:57;;;;;;;5.75;2.03;;;20.20;99.90;;;;;;5005789;28;20030;-84
2023/06/01 12:24:33;;;;;;;5.85;2.80;;;20.40;99.90;;;;;;5000815;28;20025;-84
2023/06/01 12:27:00;;;;;;;8.07;2.40;;;20.00;99.90;;;;;;4991145;28;20046;-83
2023/06/01 12:29:41;;;;;;;4.22;2.00;;;20.00;99.90;;;;;;5003754;28;20499;-84
2023/06/01 12:32:08;;;;;;;2.50;1.45;;;20.20;99.90;;;;;;5006935;28;20495;-85
2023/06/01 12:34:35;;;;;;;3.40;1.45;;;20.50;99.90;;;;;;5002509;28;20025;-84
2023/06/01 12:37:13;;;;;;;3.65;1.88;;;20.60;99.90;;;;;;5014319;28;20030;-84
2023/06/01 12:39:40;;;;;;;8.63;3.10;;;20.60;99.90;;;;;;5002112;28;20026;-85
2023/06/01 12:42:06;;;;;;;4.18;1.80;;;20.20;99.90;;;;;;5006169;28;20030;-85
2023/06/01 12:44:35;;;;;;;5.95;2.80;;;20.70;99.90;;;;;;4987195;28;20071;-85
2023/06/01 12:47:02;;;;;;;7.22;3.47;;;21.00;99.90;;;;;;5004617;28;20044;-85
2023/06/01 12:49:28;;;;;;;7.15;1.92;;;20.10;99.90;;;;;;4990560;28;20110;-84
2023/06/01 12:51:54;;;;;;;4.25;1.52;;;20.90;99.90;;;;;;4991604;28;20026;-84